createdAt,value
2022-12-17T00:02:36.764Z,29.70
2022-12-17T00:05:27.096Z,26.52
2022-12-17T00:08:18.691Z,28.75
2022-12-17T00:11:09.165Z,28.77
2022-12-17T00:14:00.000Z,28.42
2022-12-17T00:16:49.889Z,27.30
2022-12-17T00:19:39.749Z,28.05
2022-12-17T00:22:29.900Z,28.27
2022-12-17T00:25:19.907Z,27.48
2022-12-17T00:28:09.915Z,27.75
2022-12-17T00:31:01.247Z,26.83
2022-12-17T00:33:54.373Z,26.02
2022-12-17T00:36:46.784Z,26.25
2022-12-17T00:39:36.714Z,27.90
2022-12-17T00:42:26.789Z,27.58
2022-12-17T00:45:17.140Z,25.85
2022-12-17T00:48:10.267Z,26.30
2022-12-17T00:51:00.634Z,26.30
2022-12-17T00:53:50.889Z,26.08
2022-12-17T00:56:41.049Z,27.05
2022-12-17T00:59:31.174Z,25.17
2022-12-17T01:02:23.133Z,25.90
2022-12-17T01:05:13.502Z,24.42
2022-12-17T01:08:03.837Z,23.33
2022-12-17T01:10:54.069Z,24.63
2022-12-17T01:13:46.461Z,23.77
2022-12-17T01:16:38.300Z,22.70
2022-12-17T01:19:28.421Z,24.15
2022-12-17T01:22:18.515Z,22.98
2022-12-17T01:25:08.979Z,22.45
2022-12-17T01:27:59.676Z,22.40
2022-12-17T01:30:50.397Z,21.80
2022-12-17T01:33:40.624Z,21.98
2022-12-17T01:36:30.797Z,21.98
2022-12-17T01:39:20.953Z,22.70
2022-12-17T01:42:10.885Z,20.85
2022-12-17T01:45:10.941Z,20.88
2022-12-17T01:48:06.383Z,21.52
2022-12-17T01:51:02.223Z,21.05
2022-12-17T01:54:12.216Z,20.38
2022-12-17T01:57:02.482Z,20.27
2022-12-17T02:00:08.743Z,18.33
2022-12-17T02:03:05.709Z,18.67
2022-12-17T02:06:00.314Z,18.92
2022-12-17T02:08:59.712Z,18.77
2022-12-17T02:12:14.212Z,17.58
2022-12-17T02:15:26.337Z,16.23
2022-12-17T02:18:20.817Z,16.17
2022-12-17T02:21:13.562Z,16.90
2022-12-17T02:24:18.991Z,15.65
2022-12-17T02:27:13.617Z,16.83
2022-12-17T02:30:12.045Z,17.27
2022-12-17T02:33:05.531Z,20.33
2022-12-17T02:36:07.137Z,17.73
2022-12-17T02:38:57.285Z,17.67
2022-12-17T02:42:19.364Z,17.40
2022-12-17T02:45:10.918Z,16.80
2022-12-17T02:48:03.641Z,19.58
2022-12-17T02:50:54.794Z,17.35
2022-12-17T02:53:45.059Z,19.17
2022-12-17T02:56:36.088Z,17.58
2022-12-17T02:59:27.264Z,17.20
2022-12-17T03:02:17.820Z,16.98
2022-12-17T03:05:35.704Z,17.10
2022-12-17T03:08:18.176Z,16.70
2022-12-17T03:11:08.464Z,17.77
2022-12-17T03:13:58.757Z,17.35
2022-12-17T03:16:49.151Z,18.05
2022-12-17T03:19:39.404Z,17.92
2022-12-17T03:22:29.286Z,17.15
2022-12-17T03:25:19.129Z,17.45
2022-12-17T03:28:09.252Z,17.23
2022-12-17T03:30:59.442Z,17.00
2022-12-17T03:33:49.672Z,16.95
2022-12-17T03:36:40.493Z,17.73
2022-12-17T03:39:30.688Z,17.08
2022-12-17T03:42:20.646Z,17.10
2022-12-17T03:45:10.765Z,16.92
2022-12-17T03:48:00.564Z,16.15
2022-12-17T03:50:50.405Z,16.98
2022-12-17T03:53:40.569Z,17.65
2022-12-17T03:56:30.837Z,16.60
2022-12-17T03:59:20.844Z,16.67
2022-12-17T04:02:11.259Z,17.15
2022-12-17T04:05:01.849Z,17.98
2022-12-17T04:07:52.198Z,15.95
2022-12-17T04:10:42.467Z,15.95
2022-12-17T04:13:37.332Z,17.48
2022-12-17T04:16:33.295Z,17.83
2022-12-17T04:19:23.495Z,17.63
2022-12-17T04:22:13.438Z,17.05
2022-12-17T04:25:03.506Z,17.00
2022-12-17T04:27:53.532Z,17.05
2022-12-17T04:30:43.764Z,17.73
2022-12-17T04:33:34.250Z,16.30
2022-12-17T04:36:25.093Z,17.42
2022-12-17T04:39:15.372Z,19.08
2022-12-17T04:42:05.547Z,18.77
2022-12-17T04:44:55.574Z,17.48
2022-12-17T04:47:45.937Z,17.95
2022-12-17T04:50:35.949Z,18.75
2022-12-17T04:53:26.108Z,19.73
2022-12-17T04:56:16.024Z,19.00
2022-12-17T04:59:09.106Z,17.75
2022-12-17T05:01:59.312Z,18.27
2022-12-17T05:04:49.237Z,18.35
2022-12-17T05:07:39.741Z,18.40
2022-12-17T05:10:29.552Z,18.95
2022-12-17T05:13:20.318Z,18.45
2022-12-17T05:16:15.100Z,20.52
2022-12-17T05:19:05.244Z,19.00
2022-12-17T05:22:02.600Z,19.17
2022-12-17T05:24:52.540Z,19.05
2022-12-17T05:27:42.408Z,19.50
2022-12-17T05:30:32.587Z,19.02
2022-12-17T05:33:22.900Z,18.52
2022-12-17T05:36:13.909Z,18.38
2022-12-17T05:39:04.061Z,16.90
2022-12-17T05:41:54.349Z,19.70
2022-12-17T05:44:44.287Z,20.02
2022-12-17T05:47:34.248Z,19.23
2022-12-17T05:50:24.676Z,19.27
2022-12-17T05:53:23.379Z,19.15
2022-12-17T05:56:13.280Z,18.73
2022-12-17T05:59:03.645Z,18.75
2022-12-17T06:01:53.806Z,19.35
2022-12-17T06:04:44.148Z,18.83
2022-12-17T06:07:34.571Z,18.98
2022-12-17T06:10:24.649Z,18.80
2022-12-17T06:13:15.183Z,18.75
2022-12-17T06:16:09.183Z,18.38
2022-12-17T06:18:59.461Z,17.08
2022-12-17T06:21:49.861Z,18.98
2022-12-17T06:24:45.560Z,19.27
2022-12-17T06:27:35.839Z,17.92
2022-12-17T06:30:27.508Z,17.83
2022-12-17T06:33:25.805Z,16.85
2022-12-17T06:36:22.216Z,18.20
2022-12-17T06:39:13.137Z,16.77
2022-12-17T06:42:04.615Z,17.88
2022-12-17T06:44:55.271Z,17.52
2022-12-17T06:47:45.256Z,18.85
2022-12-17T06:50:35.816Z,18.42
2022-12-17T06:53:26.811Z,16.58
2022-12-17T06:56:18.423Z,18.10
2022-12-17T06:59:08.648Z,17.70
2022-12-17T07:01:58.692Z,18.05
2022-12-17T07:04:48.813Z,16.60
2022-12-17T07:07:38.847Z,18.60
2022-12-17T07:10:28.780Z,16.48
2022-12-17T07:13:34.389Z,17.08
2022-12-17T07:19:14.952Z,16.75
2022-12-17T07:22:05.095Z,17.95
2022-12-17T07:24:55.547Z,17.90
2022-12-17T07:27:45.512Z,16.52
2022-12-17T07:30:35.648Z,17.90
2022-12-17T07:33:48.112Z,18.13
2022-12-17T07:36:38.351Z,16.17
2022-12-17T07:39:28.457Z,17.50
2022-12-17T07:42:18.451Z,17.13
2022-12-17T07:45:08.676Z,15.45
2022-12-17T07:47:58.800Z,14.68
2022-12-17T07:50:48.803Z,15.70
2022-12-17T07:53:38.967Z,16.27
2022-12-17T07:56:29.109Z,15.60
2022-12-17T07:59:18.970Z,16.77
2022-12-17T08:02:09.102Z,16.52
2022-12-17T08:05:00.233Z,15.88
2022-12-17T08:07:50.691Z,15.70
2022-12-17T08:10:40.900Z,14.73
2022-12-17T08:13:30.823Z,15.57
2022-12-17T08:16:21.055Z,15.85
2022-12-17T08:19:16.788Z,16.27
2022-12-17T08:22:07.362Z,15.13
2022-12-17T08:24:57.554Z,14.70
2022-12-17T08:27:47.834Z,14.40
2022-12-17T08:30:38.090Z,14.88
2022-12-17T08:33:28.397Z,14.93
2022-12-17T08:36:18.655Z,15.40
2022-12-17T08:39:08.626Z,14.95
2022-12-17T08:42:04.083Z,13.80
2022-12-17T08:44:54.824Z,13.75
2022-12-17T08:47:48.684Z,12.82
2022-12-17T08:50:38.677Z,13.90
2022-12-17T08:53:34.593Z,13.70
2022-12-17T08:56:25.518Z,13.18
2022-12-17T08:59:15.677Z,13.23
2022-12-17T09:02:05.890Z,12.38
2022-12-17T09:04:55.896Z,11.43
2022-12-17T09:07:45.775Z,11.77
2022-12-17T09:10:35.863Z,12.02
2022-12-17T09:13:25.836Z,10.30
2022-12-17T09:16:16.360Z,12.05
2022-12-17T09:19:06.719Z,11.60
2022-12-17T09:21:59.804Z,11.40
2022-12-17T09:24:49.943Z,11.00
2022-12-17T09:27:40.224Z,11.82
2022-12-17T09:30:31.209Z,11.75
2022-12-17T09:33:41.306Z,10.00
2022-12-17T09:36:31.641Z,10.80
2022-12-17T09:39:22.016Z,11.23
2022-12-17T09:42:33.393Z,10.38
2022-12-17T09:45:48.244Z,11.00
2022-12-17T09:49:21.962Z,11.70
2022-12-17T09:52:12.396Z,11.63
2022-12-17T09:55:07.371Z,11.43
2022-12-17T09:57:57.584Z,10.55
2022-12-17T10:00:48.277Z,11.90
2022-12-17T10:03:41.772Z,24.90
2022-12-17T10:06:37.442Z,16.30
2022-12-17T10:09:33.565Z,12.80
2022-12-17T10:12:31.440Z,11.63
2022-12-17T10:15:22.976Z,12.48
2022-12-17T10:18:13.293Z,12.18
2022-12-17T10:21:10.954Z,12.80
2022-12-17T10:24:01.332Z,12.65
2022-12-17T10:26:59.167Z,12.88
2022-12-17T10:29:50.689Z,14.35
2022-12-17T10:32:43.719Z,14.25
2022-12-17T10:35:55.286Z,13.20
2022-12-17T10:38:48.869Z,14.48
2022-12-17T10:41:43.841Z,15.00
2022-12-17T10:44:47.773Z,15.02
2022-12-17T10:47:50.172Z,14.73
2022-12-17T10:50:42.620Z,14.70
2022-12-17T10:53:41.135Z,15.55
2022-12-17T10:56:41.797Z,15.48
2022-12-17T10:59:43.567Z,15.45
2022-12-17T11:02:43.531Z,15.25
2022-12-17T11:05:43.956Z,14.18
2022-12-17T11:08:35.420Z,12.52
2022-12-17T11:11:31.696Z,12.35
2022-12-17T11:14:24.406Z,11.90
2022-12-17T11:17:23.616Z,11.25
2022-12-17T11:20:18.936Z,11.38
2022-12-17T11:23:16.492Z,11.30
2022-12-17T11:26:18.084Z,11.07
2022-12-17T11:29:08.394Z,11.32
2022-12-17T11:32:26.459Z,10.70
2022-12-17T11:35:49.036Z,11.10
2022-12-17T11:38:51.503Z,10.85
2022-12-17T11:42:11.069Z,11.30
2022-12-17T11:45:11.816Z,8.95
2022-12-17T11:48:13.230Z,10.93
2022-12-17T11:51:08.273Z,10.98
2022-12-17T11:54:33.350Z,10.80
2022-12-17T11:57:43.446Z,10.43
2022-12-17T12:00:40.477Z,9.95
2022-12-17T12:03:59.122Z,10.05
2022-12-17T12:07:14.520Z,9.13
2022-12-17T12:10:08.729Z,8.07
2022-12-17T12:13:20.855Z,7.13
2022-12-17T12:16:29.965Z,7.75
2022-12-17T12:19:42.327Z,8.65
2022-12-17T12:23:08.261Z,7.55
2022-12-17T12:26:28.195Z,7.10
2022-12-17T12:29:41.285Z,7.85
2022-12-17T12:32:55.604Z,7.53
2022-12-17T12:35:47.527Z,8.90
2022-12-17T12:38:49.275Z,8.45
2022-12-17T12:41:48.041Z,8.55
2022-12-17T12:44:56.513Z,8.32
2022-12-17T12:47:56.551Z,7.75
2022-12-17T12:51:00.212Z,7.18
2022-12-17T12:53:50.817Z,6.55
2022-12-17T12:56:55.252Z,7.30
2022-12-17T12:59:46.942Z,7.50
2022-12-17T13:02:46.195Z,6.25
2022-12-17T13:05:34.993Z,6.07
2022-12-17T13:08:24.475Z,6.85
2022-12-17T13:10:56.325Z,13.90
2022-12-17T13:13:37.099Z,7.47
2022-12-17T13:16:46.181Z,6.63
2022-12-17T13:19:22.519Z,5.78
2022-12-17T13:21:54.115Z,7.05
2022-12-17T13:24:27.417Z,7.22
2022-12-17T13:26:59.000Z,8.45
2022-12-17T13:29:37.701Z,7.10
2022-12-17T13:32:25.837Z,7.13
2022-12-17T13:35:12.540Z,7.47
2022-12-17T13:37:52.639Z,7.50
2022-12-17T13:40:36.232Z,8.35
2022-12-17T13:43:21.099Z,7.80
2022-12-17T13:45:55.324Z,8.32
2022-12-17T13:48:29.200Z,7.43
2022-12-17T13:51:03.435Z,7.95
2022-12-17T13:53:35.351Z,7.50
2022-12-17T13:56:07.093Z,9.00
2022-12-17T13:58:39.122Z,7.93
2022-12-17T14:01:14.980Z,8.40
2022-12-17T14:04:08.077Z,8.98
2022-12-17T14:06:41.359Z,8.45
2022-12-17T14:09:28.013Z,8.55
2022-12-17T14:12:21.715Z,8.55
2022-12-17T14:14:57.630Z,8.15
2022-12-17T14:17:50.979Z,7.95
2022-12-17T14:20:30.374Z,8.52
2022-12-17T14:23:19.156Z,9.15
2022-12-17T14:25:50.904Z,9.13
2022-12-17T14:28:30.206Z,9.00
2022-12-17T14:34:08.185Z,9.70
2022-12-17T14:36:42.344Z,9.23
2022-12-17T14:39:28.814Z,10.00
2022-12-17T14:42:29.275Z,9.35
2022-12-17T14:45:22.913Z,9.52
2022-12-17T14:48:00.019Z,9.95
2022-12-17T14:50:34.658Z,9.77
2022-12-17T14:53:27.477Z,9.52
2022-12-17T14:55:59.701Z,10.45
2022-12-17T14:58:31.635Z,9.85
2022-12-17T15:01:13.349Z,11.55
2022-12-17T15:03:49.580Z,10.90
2022-12-17T15:06:27.164Z,11.85
2022-12-17T15:08:59.060Z,11.05
2022-12-17T15:11:30.652Z,11.93
2022-12-17T15:14:02.196Z,11.80
2022-12-17T15:16:33.857Z,11.43
2022-12-17T15:19:05.452Z,11.15
2022-12-17T15:21:37.155Z,11.43
2022-12-17T15:24:13.807Z,12.13
2022-12-17T15:26:46.115Z,12.18
2022-12-17T15:29:17.663Z,12.05
2022-12-17T15:31:49.276Z,12.40
2022-12-17T15:34:21.004Z,13.32
2022-12-17T15:36:52.557Z,12.77
2022-12-17T15:39:24.128Z,13.65
2022-12-17T15:42:14.073Z,12.70
2022-12-17T15:44:45.734Z,13.65
2022-12-17T15:47:17.358Z,12.95
2022-12-17T15:49:48.936Z,13.75
2022-12-17T15:52:20.584Z,14.00
2022-12-17T15:54:52.194Z,14.38
2022-12-17T15:57:23.862Z,13.38
2022-12-17T15:59:57.971Z,14.13
2022-12-17T16:02:29.834Z,13.68
2022-12-17T16:05:01.459Z,13.95
2022-12-17T16:07:33.295Z,14.32
2022-12-17T16:10:06.390Z,14.15
2022-12-17T16:12:48.415Z,13.73
2022-12-17T16:15:26.141Z,14.63
2022-12-17T16:17:58.571Z,13.68
2022-12-17T16:20:34.147Z,13.85
2022-12-17T16:23:09.265Z,13.25
2022-12-17T16:25:41.353Z,13.45
2022-12-17T16:28:13.642Z,14.23
2022-12-17T16:30:45.315Z,13.98
2022-12-17T16:33:17.017Z,14.38
2022-12-17T16:35:55.091Z,15.73
2022-12-17T16:38:26.907Z,13.38
2022-12-17T16:41:01.472Z,14.50
2022-12-17T16:43:34.214Z,15.80
2022-12-17T16:46:11.970Z,16.10
2022-12-17T16:48:43.857Z,15.05
2022-12-17T16:51:23.957Z,14.23
2022-12-17T16:53:59.891Z,15.03
2022-12-17T16:56:37.999Z,15.73
2022-12-17T16:59:13.170Z,16.25
2022-12-17T17:01:47.742Z,15.60
2022-12-17T17:04:21.909Z,17.63
2022-12-17T17:06:55.914Z,17.77
2022-12-17T17:09:27.756Z,17.38
2022-12-17T17:11:59.339Z,18.67
2022-12-17T17:14:30.925Z,17.75
2022-12-17T17:17:02.657Z,18.10
2022-12-17T17:19:34.234Z,20.02
2022-12-17T17:22:05.812Z,19.33
2022-12-17T17:24:37.499Z,19.00
2022-12-17T17:27:09.069Z,19.02
2022-12-17T17:29:40.690Z,18.45
2022-12-17T17:32:13.095Z,17.65
2022-12-17T17:34:45.236Z,18.38
2022-12-17T17:37:17.314Z,19.15
2022-12-17T17:39:48.936Z,18.00
2022-12-17T17:42:20.516Z,19.50
2022-12-17T17:44:52.125Z,16.95
2022-12-17T17:47:23.800Z,17.42
2022-12-17T17:49:55.397Z,16.55
2022-12-17T17:52:27.024Z,18.90
2022-12-17T17:54:58.678Z,18.65
2022-12-17T17:57:30.281Z,18.65
2022-12-17T18:00:02.760Z,19.00
2022-12-17T18:02:37.220Z,17.25
2022-12-17T18:05:09.311Z,18.48
2022-12-17T18:07:40.908Z,19.55
2022-12-17T18:10:12.533Z,19.15
2022-12-17T18:13:02.504Z,20.33
2022-12-17T18:15:34.145Z,18.45
2022-12-17T18:18:11.036Z,18.95
2022-12-17T18:20:45.821Z,18.42
2022-12-17T18:23:17.426Z,18.95
2022-12-17T18:25:49.160Z,19.95
2022-12-17T18:28:20.724Z,16.55
2022-12-17T18:30:52.311Z,16.52
2022-12-17T18:33:25.434Z,16.77
2022-12-17T18:35:59.880Z,14.95
2022-12-17T18:38:31.451Z,16.13
2022-12-17T18:41:37.073Z,17.92
2022-12-17T18:44:08.892Z,16.33
2022-12-17T18:46:40.624Z,16.60
2022-12-17T18:49:16.167Z,15.80
2022-12-17T18:51:49.889Z,15.75
2022-12-17T18:54:27.038Z,15.60
2022-12-17T18:57:01.391Z,14.43
2022-12-17T18:59:40.775Z,14.23
2022-12-17T19:02:13.485Z,14.00
2022-12-17T19:04:45.176Z,17.13
2022-12-17T19:07:16.808Z,20.65
2022-12-17T19:09:48.445Z,21.30
2022-12-17T19:12:20.025Z,24.63
2022-12-17T19:14:52.435Z,21.10
2022-12-17T19:17:24.119Z,22.10
2022-12-17T19:19:55.680Z,23.15
2022-12-17T19:22:27.310Z,23.10
2022-12-17T19:24:58.893Z,24.73
2022-12-17T19:27:30.544Z,25.40
2022-12-17T19:30:04.138Z,24.83
2022-12-17T19:32:36.035Z,25.23
2022-12-17T19:35:10.822Z,25.50
2022-12-17T19:37:45.397Z,25.25
2022-12-17T19:40:20.029Z,25.58
2022-12-17T19:42:55.119Z,26.40
2022-12-17T19:45:26.811Z,26.90
2022-12-17T19:47:58.482Z,28.05
2022-12-17T19:50:30.016Z,25.15
2022-12-17T19:53:01.667Z,25.73
2022-12-17T19:55:33.944Z,27.10
2022-12-17T19:58:05.589Z,28.13
2022-12-17T20:00:37.311Z,26.92
2022-12-17T20:03:10.191Z,26.05
2022-12-17T20:05:45.954Z,27.40
2022-12-17T20:08:22.344Z,26.42
2022-12-17T20:10:54.185Z,26.30
2022-12-17T20:13:25.797Z,26.42
2022-12-17T20:16:01.927Z,27.70
2022-12-17T20:18:33.531Z,26.55
2022-12-17T20:21:06.682Z,27.63
2022-12-17T20:23:38.348Z,27.50
2022-12-17T20:26:11.489Z,28.92
2022-12-17T20:28:43.578Z,27.80
2022-12-17T20:31:15.302Z,26.65
2022-12-17T20:33:46.995Z,27.90
2022-12-17T20:36:25.582Z,27.13
2022-12-17T20:38:57.483Z,26.23
2022-12-17T20:41:30.981Z,27.02
2022-12-17T20:44:05.040Z,31.05
2022-12-17T20:46:37.158Z,30.63
2022-12-17T20:49:10.987Z,31.75
2022-12-17T20:51:43.100Z,33.50
2022-12-17T20:54:14.822Z,31.98
2022-12-17T20:56:46.632Z,32.60
2022-12-17T20:59:19.524Z,31.58
2022-12-17T21:01:56.046Z,32.63
2022-12-17T21:04:28.003Z,32.60
2022-12-17T21:06:59.609Z,31.23
2022-12-17T21:09:31.213Z,29.85
2022-12-17T21:12:02.897Z,31.48
2022-12-17T21:14:35.875Z,32.55
2022-12-17T21:17:07.783Z,30.85
2022-12-17T21:19:39.352Z,31.10
2022-12-17T21:22:10.948Z,34.50
2022-12-17T21:24:42.953Z,34.08
2022-12-17T21:27:17.258Z,30.80
2022-12-17T21:29:48.883Z,32.88
2022-12-17T21:32:20.499Z,36.30
2022-12-17T21:34:52.097Z,33.85
2022-12-17T21:37:23.707Z,34.30
2022-12-17T21:39:59.645Z,34.35
2022-12-17T21:42:49.980Z,34.85
2022-12-17T21:45:21.553Z,31.92
2022-12-17T21:47:53.338Z,32.08
2022-12-17T21:50:24.921Z,32.63
2022-12-17T21:52:56.718Z,30.85
2022-12-17T21:55:28.433Z,32.17
2022-12-17T21:58:00.033Z,31.30
2022-12-17T22:00:32.129Z,32.20
2022-12-17T22:03:03.867Z,30.92
2022-12-17T22:05:37.325Z,32.95
2022-12-17T22:08:09.381Z,29.98
2022-12-17T22:10:48.632Z,32.72
2022-12-17T22:13:42.533Z,31.95
2022-12-17T22:16:14.552Z,31.10
2022-12-17T22:18:46.118Z,32.10
2022-12-17T22:21:18.347Z,31.65
2022-12-17T22:23:50.421Z,31.13
2022-12-17T22:26:22.317Z,32.22
2022-12-17T22:28:53.924Z,33.47
2022-12-17T22:31:44.301Z,30.10
2022-12-17T22:35:36.448Z,31.90
2022-12-17T22:39:57.368Z,33.15
2022-12-17T22:44:35.059Z,31.98
2022-12-17T22:44:35.843Z,31.10
2022-12-17T22:46:03.474Z,32.72
2022-12-17T22:48:35.767Z,32.53
2022-12-17T22:51:12.081Z,31.08
2022-12-17T22:53:46.825Z,31.20
2022-12-17T22:56:33.749Z,33.10
2022-12-17T22:59:18.726Z,32.25
2022-12-17T23:01:50.413Z,34.25
2022-12-17T23:04:22.267Z,34.33
2022-12-17T23:06:53.932Z,34.10
2022-12-17T23:09:28.416Z,33.47
2022-12-17T23:12:20.061Z,34.38
2022-12-17T23:14:54.792Z,32.00
2022-12-17T23:17:28.475Z,31.63
2022-12-17T23:20:00.039Z,33.45
2022-12-17T23:22:31.611Z,33.83
2022-12-17T23:25:03.860Z,34.05
2022-12-17T23:27:35.532Z,32.67
2022-12-17T23:30:08.162Z,34.95
2022-12-17T23:32:40.126Z,35.00
2022-12-17T23:35:12.993Z,36.83
2022-12-17T23:37:44.723Z,34.90
2022-12-17T23:40:16.332Z,34.50
2022-12-17T23:42:47.980Z,34.42
2022-12-17T23:45:19.542Z,36.13
2022-12-17T23:47:51.138Z,34.72
2022-12-17T23:50:22.732Z,34.72
2022-12-17T23:52:54.321Z,34.35
2022-12-17T23:55:25.903Z,34.85
2022-12-17T23:57:58.765Z,34.78
